Time,TemperatureF,DewpointF,PressureIn,WindDirection,WindDirectionDegrees,WindSpeedMPH,WindSpeedGustMPH,Humidity,HourlyPrecipIn,Conditions,Clouds,dailyrainin,SoftwareType,DateUTC
2013-08-22 00:00:00,67.8,65.7,30.08,North,0,0.0,0.0,93,0.00,,CLR,0.00,VWS V14.00,2013-08-22 05:00:00,
2013-08-22 00:30:00,67.2,65.1,30.09,North,0,0.0,0.0,93,0.00,,CLR,0.00,VWS V14.00,2013-08-22 05:30:00,
2013-08-22 01:00:00,67.1,65.0,30.09,North,0,0.0,0.0,93,0.00,,CLR,0.00,VWS V14.00,2013-08-22 06:00:00,
2013-08-22 01:30:00,66.9,64.8,30.07,North,0,0.0,0.0,93,0.00,,CLR,0.00,VWS V14.00,2013-08-22 06:30:00,
2013-08-22 02:00:00,66.9,64.8,30.07,North,0,0.0,0.0,93,0.00,,CLR,0.00,VWS V14.00,2013-08-22 07:00:00,
2013-08-22 02:30:00,67.1,65.0,30.06,North,0,0.0,0.0,93,0.00,,CLR,0.00,VWS V14.00,2013-08-22 07:30:00,
2013-08-22 03:00:00,66.8,64.7,30.06,North,0,0.0,0.0,93,0.00,,CLR,0.00,VWS V14.00,2013-08-22 08:00:00,
2013-08-22 03:30:00,66.5,64.4,30.06,North,0,0.0,0.0,93,0.00,,CLR,0.00,VWS V14.00,2013-08-22 08:30:00,
2013-08-22 04:00:00,66.4,64.3,30.08,North,0,0.0,0.0,93,0.00,,CLR,0.00,VWS V14.00,2013-08-22 09:00:00,
2013-08-22 04:30:00,66.4,64.3,30.09,North,0,0.0,0.0,93,0.00,,CLR,0.00,VWS V14.00,2013-08-22 09:30:00,
2013-08-22 05:00:00,66.3,64.2,30.10,North,0,0.0,0.0,93,0.00,,CLR,0.00,VWS V14.00,2013-08-22 10:00:00,
2013-08-22 05:30:00,65.9,63.8,30.09,North,0,0.0,0.0,93,0.00,,CLR,0.00,VWS V14.00,2013-08-22 10:30:00,
2013-08-22 06:00:00,65.7,63.6,30.08,North,0,0.0,0.0,93,0.00,,CLR,0.00,VWS V14.00,2013-08-22 11:00:00,
2013-08-22 06:30:00,65.7,63.6,30.08,North,0,0.0,0.0,93,0.00,,CLR,0.00,VWS V14.00,2013-08-22 11:30:00,
2013-08-22 07:00:00,65.7,63.6,30.09,North,0,0.0,0.0,93,0.00,,CLR,0.00,VWS V14.00,2013-08-22 12:00:00,
2013-08-22 07:30:00,66.2,64.1,30.10,North,0,0.0,0.0,93,0.00,,CLR,0.00,VWS V14.00,2013-08-22 12:30:00,
2013-08-22 08:00:00,67.6,65.5,30.10,North,0,0.0,0.0,93,0.00,,CLR,0.00,VWS V14.00,2013-08-22 13:00:00,
2013-08-22 08:46:00,67.6,65.5,30.10,North,0,0.0,0.0,93,0.00,,CLR,0.00,VWS V14.00,2013-08-22 13:46:00,
2013-08-22 08:51:00,75.6,72.8,30.10,West,271,0.0,0.0,91,0.00,,CLR,0.00,VWS V14.00,2013-08-22 13:51:00,
2013-08-22 08:56:00,76.2,72.7,30.09,West,266,0.0,0.0,89,0.00,,CLR,0.00,VWS V14.00,2013-08-22 13:56:00,
2013-08-22 09:00:00,75.5,72.4,30.10,West,271,0.0,0.0,90,0.00,,CLR,0.00,VWS V14.00,2013-08-22 14:00:00,
2013-08-22 09:01:00,76.9,73.1,30.09,West,266,0.0,0.0,88,0.00,,CLR,0.00,VWS V14.00,2013-08-22 14:01:00,
2013-08-22 09:06:00,77.6,73.4,30.10,West,280,0.0,0.0,87,0.00,,CLR,0.00,VWS V14.00,2013-08-22 14:06:00,
2013-08-22 09:11:00,78.3,73.4,30.09,West,277,4.0,8.0,85,0.00,,CLR,0.00,VWS V14.00,2013-08-22 14:11:00,
2013-08-22 09:16:00,78.4,72.8,30.09,West,259,5.0,10.0,83,0.00,,CLR,0.00,VWS V14.00,2013-08-22 14:16:00,
2013-08-22 09:21:00,78.5,72.9,30.09,West,265,5.0,5.0,83,0.00,,CLR,0.00,VWS V14.00,2013-08-22 14:21:00,
2013-08-22 09:26:00,78.9,73.3,30.09,West,260,4.0,8.0,83,0.00,,CLR,0.00,VWS V14.00,2013-08-22 14:26:00,
2013-08-22 09:30:00,78.4,73.2,30.09,West,267,2.0,10.0,84,0.00,,CLR,0.00,VWS V14.00,2013-08-22 14:30:00,
2013-08-22 09:31:00,79.5,73.9,30.09,West,260,3.0,8.0,83,0.00,,CLR,0.00,VWS V14.00,2013-08-22 14:31:00,
2013-08-22 09:36:00,79.9,74.3,30.09,WSW,258,2.0,8.0,83,0.00,,CLR,0.00,VWS V14.00,2013-08-22 14:36:00,
2013-08-22 09:41:00,80.3,73.6,30.09,WSW,250,6.0,8.0,80,0.00,,CLR,0.00,VWS V14.00,2013-08-22 14:41:00,
2013-08-22 09:46:00,80.8,73.3,30.09,West,260,5.0,9.0,78,0.00,,CLR,0.00,VWS V14.00,2013-08-22 14:46:00,
2013-08-22 09:51:00,81.0,74.2,30.08,West,273,3.0,3.0,80,0.00,,CLR,0.00,VWS V14.00,2013-08-22 14:51:00,
2013-08-22 09:56:00,81.6,75.2,30.08,West,262,5.0,5.0,81,0.00,,CLR,0.00,VWS V14.00,2013-08-22 14:56:00,
2013-08-22 10:00:00,81.0,75.0,30.08,West,273,1.0,10.0,82,0.00,,CLR,0.00,VWS V14.00,2013-08-22 15:00:00,
2013-08-22 10:01:00,82.2,75.4,30.08,West,261,1.0,5.0,80,0.00,,CLR,0.00,VWS V14.00,2013-08-22 15:01:00,
2013-08-22 10:06:00,82.6,75.4,30.08,WSW,255,7.0,9.0,79,0.00,,CLR,0.00,VWS V14.00,2013-08-22 15:06:00,
2013-08-22 10:11:00,82.8,76.4,30.08,West,261,0.0,9.0,81,0.00,,CLR,0.00,VWS V14.00,2013-08-22 15:11:00,
2013-08-22 10:16:00,83.2,74.8,30.09,West,263,3.0,9.0,76,0.00,,CLR,0.00,VWS V14.00,2013-08-22 15:16:00,
2013-08-22 10:21:00,83.6,76.0,30.08,WSW,249,5.0,5.0,78,0.00,,CLR,0.00,VWS V14.00,2013-08-22 15:21:00,
2013-08-22 10:26:00,83.7,74.5,30.08,West,261,5.0,7.0,74,0.00,,CLR,0.00,VWS V14.00,2013-08-22 15:26:00,
2013-08-22 10:30:00,83.6,76.0,30.08,WSW,237,5.0,9.0,78,0.00,,CLR,0.00,VWS V14.00,2013-08-22 15:30:00,
2013-08-22 10:31:00,83.5,73.9,30.09,WNW,291,3.0,8.0,73,0.00,,CLR,0.00,VWS V14.00,2013-08-22 15:31:00,
2013-08-22 10:36:00,83.2,74.5,30.09,West,271,5.0,9.0,75,0.00,,CLR,0.00,VWS V14.00,2013-08-22 15:36:00,
2013-08-22 10:41:00,82.6,73.9,30.09,West,268,4.0,9.0,75,0.00,,CLR,0.00,VWS V14.00,2013-08-22 15:41:00,
2013-08-22 10:46:00,82.2,74.7,30.09,WSW,250,6.0,9.0,78,0.00,,CLR,0.00,VWS V14.00,2013-08-22 15:46:00,
2013-08-22 10:51:00,81.9,74.0,30.09,WSW,250,6.0,9.0,77,0.00,,CLR,0.00,VWS V14.00,2013-08-22 15:51:00,
2013-08-22 10:56:00,82.4,74.5,30.09,West,265,0.0,9.0,77,0.00,,CLR,0.00,VWS V14.00,2013-08-22 15:56:00,
2013-08-22 11:00:00,81.9,74.4,30.09,WSW,257,5.0,9.0,78,0.00,,CLR,0.00,VWS V14.00,2013-08-22 16:00:00,
2013-08-22 11:01:00,83.2,74.8,30.08,West,267,7.0,11.0,76,0.00,,CLR,0.00,VWS V14.00,2013-08-22 16:01:00,
2013-08-22 11:06:00,83.7,74.5,30.08,West,270,3.0,11.0,74,0.00,,CLR,0.00,VWS V14.00,2013-08-22 16:06:00,
2013-08-22 11:11:00,84.2,75.0,30.08,West,281,4.0,11.0,74,0.00,,CLR,0.00,VWS V14.00,2013-08-22 16:11:00,
2013-08-22 11:16:00,84.5,74.5,30.08,WSW,252,5.0,12.0,72,0.00,,CLR,0.00,VWS V14.00,2013-08-22 16:16:00,
2013-08-22 11:21:00,84.5,75.7,30.08,WNW,282,1.0,3.0,75,0.00,,CLR,0.00,VWS V14.00,2013-08-22 16:21:00,
2013-08-22 11:26:00,84.8,74.8,30.08,West,280,5.0,8.0,72,0.00,,CLR,0.00,VWS V14.00,2013-08-22 16:26:00,
2013-08-22 11:30:00,84.4,74.8,30.08,WNW,282,2.0,12.0,73,0.00,,CLR,0.00,VWS V14.00,2013-08-22 16:30:00,
2013-08-22 11:31:00,85.2,75.2,30.08,WSW,241,2.0,8.0,72,0.00,,CLR,0.00,VWS V14.00,2013-08-22 16:31:00,
2013-08-22 11:36:00,85.8,77.4,30.08,WNW,284,2.0,8.0,76,0.00,,CLR,0.00,VWS V14.00,2013-08-22 16:36:00,
2013-08-22 11:41:00,86.3,76.2,30.08,WNW,294,0.0,8.0,72,0.00,,CLR,0.00,VWS V14.00,2013-08-22 16:41:00,
2013-08-22 11:46:00,86.8,75.8,30.07,WNW,292,3.0,8.0,70,0.00,,CLR,0.00,VWS V14.00,2013-08-22 16:46:00,
2013-08-22 11:51:00,87.2,77.1,30.07,West,266,4.0,4.0,72,0.00,,CLR,0.00,VWS V14.00,2013-08-22 16:51:00,
2013-08-22 11:56:00,87.4,76.0,30.07,WSW,249,3.0,8.0,69,0.00,,CLR,0.00,VWS V14.00,2013-08-22 16:56:00,
2013-08-22 12:00:00,87.1,76.6,30.08,West,260,4.0,8.0,71,0.00,,CLR,0.00,VWS V14.00,2013-08-22 17:00:00,
2013-08-22 12:01:00,87.6,77.0,30.07,West,280,5.0,8.0,71,0.00,,CLR,0.00,VWS V14.00,2013-08-22 17:01:00,
2013-08-22 12:06:00,87.7,76.3,30.07,West,263,5.0,8.0,69,0.00,,CLR,0.00,VWS V14.00,2013-08-22 17:06:00,
2013-08-22 12:11:00,87.7,76.3,30.07,West,259,2.0,8.0,69,0.00,,CLR,0.00,VWS V14.00,2013-08-22 17:11:00,
2013-08-22 12:16:00,87.8,77.2,30.07,WSW,245,3.0,8.0,71,0.00,,CLR,0.00,VWS V14.00,2013-08-22 17:16:00,
2013-08-22 12:21:00,88.1,76.2,30.06,West,264,3.0,3.0,68,0.00,,CLR,0.00,VWS V14.00,2013-08-22 17:21:00,
2013-08-22 12:26:00,88.4,76.9,30.06,West,267,2.0,5.0,69,0.00,,CLR,0.00,VWS V14.00,2013-08-22 17:26:00,
2013-08-22 12:30:00,88.1,78.8,30.06,West,264,1.0,8.0,74,0.00,,CLR,0.00,VWS V14.00,2013-08-22 17:30:00,
2013-08-22 12:31:00,88.5,78.3,30.06,WSW,256,2.0,5.0,72,0.00,,CLR,0.00,VWS V14.00,2013-08-22 17:31:00,
2013-08-22 12:36:00,88.3,75.1,30.06,West,269,2.0,7.0,65,0.00,,CLR,0.00,VWS V14.00,2013-08-22 17:36:00,
2013-08-22 12:41:00,88.6,77.1,30.06,WSW,245,4.0,7.0,69,0.00,,CLR,0.00,VWS V14.00,2013-08-22 17:41:00,
2013-08-22 12:46:00,88.9,77.8,30.06,WSW,247,0.0,7.0,70,0.00,,CLR,0.00,VWS V14.00,2013-08-22 17:46:00,
2013-08-22 12:51:00,89.1,74.9,30.06,West,268,0.0,2.0,63,0.00,,CLR,0.00,VWS V14.00,2013-08-22 17:51:00,
2013-08-22 12:56:00,89.0,76.2,30.06,West,275,4.0,6.0,66,0.00,,CLR,0.00,VWS V14.00,2013-08-22 17:56:00,
2013-08-22 13:00:00,89.1,75.3,30.06,West,268,2.0,7.0,64,0.00,,CLR,0.00,VWS V14.00,2013-08-22 18:00:00,
2013-08-22 13:01:00,89.2,75.9,30.05,WSW,250,6.0,9.0,65,0.00,,CLR,0.00,VWS V14.00,2013-08-22 18:01:00,
2013-08-22 13:06:00,88.9,76.1,30.06,West,264,1.0,9.0,66,0.00,,CLR,0.00,VWS V14.00,2013-08-22 18:06:00,
2013-08-22 13:11:00,88.7,74.5,30.05,West,269,1.0,9.0,63,0.00,,CLR,0.00,VWS V14.00,2013-08-22 18:11:00,
2013-08-22 13:16:00,88.1,74.4,30.05,NNW,331,3.0,9.0,64,0.00,,CLR,0.00,VWS V14.00,2013-08-22 18:16:00,
2013-08-22 13:21:00,87.5,75.6,30.05,NNW,333,0.0,0.0,68,0.00,,CLR,0.00,VWS V14.00,2013-08-22 18:21:00,
2013-08-22 13:26:00,87.4,75.6,30.05,WNW,292,2.0,6.0,68,0.00,,CLR,0.00,VWS V14.00,2013-08-22 18:26:00,
2013-08-22 13:30:00,87.5,75.6,30.05,NNW,333,0.0,9.0,68,0.00,,CLR,0.00,VWS V14.00,2013-08-22 18:30:00,
2013-08-22 13:31:00,87.9,74.2,30.05,West,281,1.0,7.0,64,0.00,,CLR,0.00,VWS V14.00,2013-08-22 18:31:00,
2013-08-22 13:36:00,88.6,75.3,30.04,North,5,1.0,7.0,65,0.00,,CLR,0.00,VWS V14.00,2013-08-22 18:36:00,
2013-08-22 13:41:00,88.9,76.5,30.05,West,265,3.0,7.0,67,0.00,,CLR,0.00,VWS V14.00,2013-08-22 18:41:00,
2013-08-22 13:46:00,88.9,76.5,30.05,West,265,1.0,7.0,67,0.00,,CLR,0.00,VWS V14.00,2013-08-22 18:46:00,
2013-08-22 13:51:00,89.7,76.4,30.04,West,271,3.0,3.0,65,0.00,,CLR,0.00,VWS V14.00,2013-08-22 18:51:00,
2013-08-22 13:56:00,89.6,75.3,30.04,WNW,292,5.0,7.0,63,0.00,,CLR,0.00,VWS V14.00,2013-08-22 18:56:00,
2013-08-22 14:00:00,89.7,76.4,30.05,West,271,2.0,5.0,65,0.00,,CLR,0.00,VWS V14.00,2013-08-22 19:00:00,
2013-08-22 14:01:00,88.5,76.2,30.05,West,273,4.0,7.0,67,0.00,,CLR,0.00,VWS V14.00,2013-08-22 19:01:00,
2013-08-22 14:06:00,88.2,77.6,30.04,WNW,285,3.0,7.0,71,0.00,,CLR,0.00,VWS V14.00,2013-08-22 19:06:00,
2013-08-22 14:10:00,88.6,76.7,30.04,West,278,3.0,7.0,68,0.00,,CLR,0.00,VWS V14.00,2013-08-22 19:10:00,
2013-08-22 14:15:00,88.9,75.6,30.04,WNW,289,1.0,7.0,65,0.00,,CLR,0.00,VWS V14.00,2013-08-22 19:15:00,
2013-08-22 14:20:00,89.0,74.3,30.04,West,273,4.0,10.0,62,0.00,,CLR,0.00,VWS V14.00,2013-08-22 19:20:00,
2013-08-22 14:25:00,89.0,75.2,30.04,West,269,4.0,8.0,64,0.00,,CLR,0.00,VWS V14.00,2013-08-22 19:25:00,
2013-08-22 14:30:00,89.1,74.4,30.03,West,269,1.0,8.0,62,0.00,,CLR,0.00,VWS V14.00,2013-08-22 19:30:00,
2013-08-22 14:35:00,89.4,75.2,30.03,West,263,1.0,8.0,63,0.00,,CLR,0.00,VWS V14.00,2013-08-22 19:35:00,
2013-08-22 14:40:00,89.4,75.2,30.03,West,271,2.0,8.0,63,0.00,,CLR,0.00,VWS V14.00,2013-08-22 19:40:00,
2013-08-22 14:45:00,89.0,74.8,30.03,North,355,1.0,8.0,63,0.00,,CLR,0.00,VWS V14.00,2013-08-22 19:45:00,
2013-08-22 14:50:00,89.1,75.8,30.03,WNW,293,4.0,8.0,65,0.00,,CLR,0.00,VWS V14.00,2013-08-22 19:50:00,
2013-08-22 14:55:00,89.5,76.2,30.02,WNW,292,4.0,6.0,65,0.00,,CLR,0.00,VWS V14.00,2013-08-22 19:55:00,
2013-08-22 15:00:00,89.7,74.0,30.03,WNW,292,3.0,6.0,60,0.00,,CLR,0.00,VWS V14.00,2013-08-22 20:00:00,
2013-08-22 15:05:00,89.9,74.7,30.02,WNW,292,1.0,6.0,61,0.00,,CLR,0.00,VWS V14.00,2013-08-22 20:05:00,
2013-08-22 15:10:00,89.8,75.1,30.02,West,268,3.0,6.0,62,0.00,,CLR,0.00,VWS V14.00,2013-08-22 20:10:00,
2013-08-22 15:15:00,90.0,75.2,30.02,West,274,0.0,6.0,62,0.00,,CLR,0.00,VWS V14.00,2013-08-22 20:15:00,
2013-08-22 15:20:00,90.2,77.8,30.02,West,275,0.0,6.0,67,0.00,,CLR,0.00,VWS V14.00,2013-08-22 20:20:00,
2013-08-22 15:25:00,89.9,74.7,30.02,WNW,300,3.0,5.0,61,0.00,,CLR,0.00,VWS V14.00,2013-08-22 20:25:00,
2013-08-22 15:30:00,89.9,76.1,30.02,WNW,300,0.0,5.0,64,0.00,,CLR,0.00,VWS V14.00,2013-08-22 20:30:00,
2013-08-22 15:35:00,90.1,77.2,30.02,WNW,300,0.0,5.0,66,0.00,,CLR,0.00,VWS V14.00,2013-08-22 20:35:00,
2013-08-22 15:40:00,90.3,77.4,30.01,WNW,300,0.0,5.0,66,0.00,,CLR,0.00,VWS V14.00,2013-08-22 20:40:00,
2013-08-22 15:45:00,90.2,74.4,30.01,WNW,301,0.0,5.0,60,0.00,,CLR,0.00,VWS V14.00,2013-08-22 20:45:00,
2013-08-22 15:50:00,90.1,74.8,30.01,NW,325,2.0,6.0,61,0.00,,CLR,0.00,VWS V14.00,2013-08-22 20:50:00,
2013-08-22 15:55:00,90.1,74.8,30.00,NNW,335,2.0,3.0,61,0.00,,CLR,0.00,VWS V14.00,2013-08-22 20:55:00,
2013-08-22 16:00:00,90.2,73.9,30.00,West,280,1.0,4.0,59,0.00,,CLR,0.00,VWS V14.00,2013-08-22 21:00:00,
2013-08-22 16:05:00,90.2,75.9,30.01,West,277,1.0,5.0,63,0.00,,CLR,0.00,VWS V14.00,2013-08-22 21:05:00,
2013-08-22 16:10:00,90.1,75.8,30.00,West,277,3.0,5.0,63,0.00,,CLR,0.00,VWS V14.00,2013-08-22 21:10:00,
2013-08-22 16:15:00,90.1,74.8,30.00,West,277,0.0,5.0,61,0.00,,CLR,0.00,VWS V14.00,2013-08-22 21:15:00,
2013-08-22 16:20:00,90.3,74.5,30.01,West,277,0.0,5.0,60,0.00,,CLR,0.00,VWS V14.00,2013-08-22 21:20:00,
2013-08-22 16:25:00,90.4,75.1,30.01,NW,315,1.0,4.0,61,0.00,,CLR,0.00,VWS V14.00,2013-08-22 21:25:00,
2013-08-22 16:30:00,90.4,76.1,30.01,NW,315,0.0,4.0,63,0.00,,CLR,0.00,VWS V14.00,2013-08-22 21:30:00,
2013-08-22 16:35:00,90.6,76.8,30.00,NNE,21,3.0,5.0,64,0.00,,CLR,0.00,VWS V14.00,2013-08-22 21:35:00,
2013-08-22 16:40:00,90.8,73.5,30.00,North,9,0.0,5.0,57,0.00,,CLR,0.00,VWS V14.00,2013-08-22 21:40:00,
2013-08-22 16:45:00,90.5,75.2,30.00,NNE,16,3.0,5.0,61,0.00,,CLR,0.00,VWS V14.00,2013-08-22 21:45:00,
2013-08-22 16:50:00,90.2,73.4,30.00,NNW,333,1.0,5.0,58,0.00,,CLR,0.00,VWS V14.00,2013-08-22 21:50:00,
2013-08-22 16:55:00,89.9,74.7,30.00,NNW,333,0.0,2.0,61,0.00,,CLR,0.00,VWS V14.00,2013-08-22 21:55:00,
2013-08-22 17:00:00,90.1,76.8,30.00,West,279,0.0,2.0,65,0.00,,CLR,0.00,VWS V14.00,2013-08-22 22:00:00,
2013-08-22 17:05:00,90.0,75.7,30.00,WNW,290,0.0,3.0,63,0.00,,CLR,0.00,VWS V14.00,2013-08-22 22:05:00,
2013-08-22 17:10:00,90.0,74.3,29.99,North,5,3.0,5.0,60,0.00,,CLR,0.00,VWS V14.00,2013-08-22 22:10:00,
2013-08-22 17:15:00,90.2,75.9,29.99,North,5,0.0,5.0,63,0.00,,CLR,0.00,VWS V14.00,2013-08-22 22:15:00,
2013-08-22 17:20:00,90.2,77.3,29.99,North,5,2.0,5.0,66,0.00,,CLR,0.00,VWS V14.00,2013-08-22 22:20:00,
2013-08-22 17:25:00,90.1,75.8,29.99,NW,315,0.0,4.0,63,0.00,,CLR,0.00,VWS V14.00,2013-08-22 22:25:00,
2013-08-22 17:30:00,90.0,77.1,29.99,NW,315,0.0,4.0,66,0.00,,CLR,0.00,VWS V14.00,2013-08-22 22:30:00,
2013-08-22 17:35:00,89.6,75.8,29.99,NW,315,0.0,4.0,64,0.00,,CLR,0.00,VWS V14.00,2013-08-22 22:35:00,
2013-08-22 17:40:00,89.2,75.0,29.99,NW,315,0.0,4.0,63,0.00,,CLR,0.00,VWS V14.00,2013-08-22 22:40:00,
2013-08-22 17:45:00,88.9,74.2,29.99,NW,315,0.0,4.0,62,0.00,,CLR,0.00,VWS V14.00,2013-08-22 22:45:00,
2013-08-22 17:50:00,88.5,76.2,29.99,NW,315,0.0,4.0,67,0.00,,CLR,0.00,VWS V14.00,2013-08-22 22:50:00,
2013-08-22 17:55:00,87.9,76.5,29.99,NW,315,0.0,0.0,69,0.00,,CLR,0.00,VWS V14.00,2013-08-22 22:55:00,
2013-08-22 18:00:00,87.4,75.6,29.99,NW,315,0.0,0.0,68,0.00,,CLR,0.00,VWS V14.00,2013-08-22 23:00:00,
2013-08-22 18:05:00,86.8,75.8,29.98,NW,315,0.0,0.0,70,0.00,,CLR,0.00,VWS V14.00,2013-08-22 23:05:00,
2013-08-22 18:10:00,86.4,75.9,29.98,NW,323,0.0,1.0,71,0.00,,CLR,0.00,VWS V14.00,2013-08-22 23:10:00,
2013-08-22 18:15:00,85.9,75.4,29.98,NW,323,0.0,1.0,71,0.00,,CLR,0.00,VWS V14.00,2013-08-22 23:15:00,
2013-08-22 18:20:00,85.8,76.6,29.98,NW,323,0.0,1.0,74,0.00,,CLR,0.00,VWS V14.00,2013-08-22 23:20:00,
2013-08-22 18:25:00,85.5,76.3,29.98,NW,323,0.0,0.0,74,0.00,,CLR,0.00,VWS V14.00,2013-08-22 23:25:00,
2013-08-22 18:30:00,85.1,75.5,29.98,NW,323,0.0,0.0,73,0.00,,CLR,0.00,VWS V14.00,2013-08-22 23:30:00,
2013-08-22 18:35:00,84.8,76.0,29.98,NW,323,0.0,0.0,75,0.00,,CLR,0.00,VWS V14.00,2013-08-22 23:35:00,
2013-08-22 18:40:00,84.5,75.7,29.98,NW,323,0.0,0.0,75,0.00,,CLR,0.00,VWS V14.00,2013-08-22 23:40:00,
2013-08-22 18:45:00,84.3,75.9,29.98,NW,323,0.0,0.0,76,0.00,,CLR,0.00,VWS V14.00,2013-08-22 23:45:00,
2013-08-22 18:50:00,84.3,76.3,29.98,NW,323,0.0,0.0,77,0.00,,CLR,0.00,VWS V14.00,2013-08-22 23:50:00,
2013-08-22 18:55:00,83.8,75.8,29.98,NW,323,0.0,0.0,77,0.00,,CLR,0.00,VWS V14.00,2013-08-22 23:55:00,
2013-08-22 19:00:00,83.1,75.5,29.98,NW,323,0.0,0.0,78,0.00,,CLR,0.00,VWS V14.00,2013-08-23 00:00:00,
2013-08-22 19:05:00,82.0,74.8,29.98,NW,323,0.0,0.0,79,0.00,,CLR,0.00,VWS V14.00,2013-08-23 00:05:00,
2013-08-22 19:10:00,81.4,74.6,29.98,NW,323,0.0,0.0,80,0.00,,CLR,0.00,VWS V14.00,2013-08-23 00:10:00,
2013-08-22 19:15:00,80.5,74.1,29.99,NW,323,0.0,0.0,81,0.00,,CLR,0.00,VWS V14.00,2013-08-23 00:15:00,
2013-08-22 19:20:00,79.9,74.3,29.99,NW,323,0.0,0.0,83,0.00,,CLR,0.00,VWS V14.00,2013-08-23 00:20:00,
2013-08-22 19:25:00,79.4,74.2,29.99,NW,323,0.0,0.0,84,0.00,,CLR,0.00,VWS V14.00,2013-08-23 00:25:00,
2013-08-22 19:30:00,79.0,74.5,29.99,NW,323,0.0,0.0,86,0.00,,CLR,0.00,VWS V14.00,2013-08-23 00:30:00,
2013-08-22 19:35:00,78.6,73.7,29.99,NW,323,0.0,0.0,85,0.00,,CLR,0.00,VWS V14.00,2013-08-23 00:35:00,
2013-08-22 19:40:00,78.3,73.4,29.99,NW,323,0.0,0.0,85,0.00,,CLR,0.00,VWS V14.00,2013-08-23 00:40:00,
2013-08-22 19:45:00,78.1,73.6,30.00,NW,323,0.0,0.0,86,0.00,,CLR,0.00,VWS V14.00,2013-08-23 00:45:00,
2013-08-22 19:50:00,77.8,73.6,30.00,NW,323,0.0,0.0,87,0.00,,CLR,0.00,VWS V14.00,2013-08-23 00:50:00,
2013-08-22 19:55:00,77.4,73.2,30.00,NW,323,1.0,1.0,87,0.00,,CLR,0.00,VWS V14.00,2013-08-23 00:55:00,
2013-08-22 20:00:00,77.2,73.4,30.00,NW,323,0.0,1.0,88,0.00,,CLR,0.00,VWS V14.00,2013-08-23 01:00:00,
2013-08-22 20:05:00,77.1,73.3,30.00,NW,323,0.0,1.0,88,0.00,,CLR,0.00,VWS V14.00,2013-08-23 01:05:00,
2013-08-22 20:10:00,76.9,73.4,30.00,NW,323,0.0,1.0,89,0.00,,CLR,0.00,VWS V14.00,2013-08-23 01:10:00,
2013-08-22 20:15:00,76.5,73.0,30.00,NW,323,0.0,1.0,89,0.00,,CLR,0.00,VWS V14.00,2013-08-23 01:15:00,
2013-08-22 20:20:00,76.2,72.7,30.00,NW,323,0.0,1.0,89,0.00,,CLR,0.00,VWS V14.00,2013-08-23 01:20:00,
2013-08-22 20:25:00,76.0,72.5,30.00,NW,323,0.0,0.0,89,0.00,,CLR,0.00,VWS V14.00,2013-08-23 01:25:00,
2013-08-22 20:29:00,75.8,72.7,30.01,NW,323,0.0,0.0,90,0.00,,CLR,0.00,VWS V14.00,2013-08-23 01:29:00,
2013-08-22 20:30:00,76.2,72.7,30.00,NW,323,0.0,1.0,89,0.00,,CLR,0.00,VWS V14.00,2013-08-23 01:30:00,
2013-08-22 20:34:00,75.6,72.5,30.01,NW,323,0.0,0.0,90,0.00,,CLR,0.00,VWS V14.00,2013-08-23 01:34:00,
2013-08-22 20:39:00,75.5,72.4,30.01,NW,323,0.0,0.0,90,0.00,,CLR,0.00,VWS V14.00,2013-08-23 01:39:00,
2013-08-22 20:45:00,75.4,72.6,30.01,NW,323,0.0,0.0,91,0.00,,CLR,0.00,VWS V14.00,2013-08-23 01:45:00,
2013-08-22 20:50:00,75.4,72.6,30.01,NW,323,0.0,0.0,91,0.00,,CLR,0.00,VWS V14.00,2013-08-23 01:50:00,
2013-08-22 20:55:00,75.4,72.6,30.01,NW,323,2.0,4.0,91,0.00,,CLR,0.00,VWS V14.00,2013-08-23 01:55:00,
2013-08-22 21:00:00,75.3,72.5,30.02,NW,323,0.0,4.0,91,0.00,,CLR,0.00,VWS V14.00,2013-08-23 02:00:00,
2013-08-22 21:05:00,75.3,72.5,30.02,NW,323,0.0,4.0,91,0.00,,CLR,0.00,VWS V14.00,2013-08-23 02:05:00,
2013-08-22 21:10:00,75.2,72.4,30.02,NW,323,0.0,4.0,91,0.00,,CLR,0.00,VWS V14.00,2013-08-23 02:10:00,
2013-08-22 21:15:00,75.1,72.6,30.02,NW,323,0.0,4.0,92,0.00,,CLR,0.00,VWS V14.00,2013-08-23 02:15:00,
2013-08-22 21:20:00,75.0,72.5,30.02,NW,323,0.0,4.0,92,0.00,,CLR,0.00,VWS V14.00,2013-08-23 02:20:00,
2013-08-22 21:25:00,74.9,72.4,30.02,NW,323,0.0,0.0,92,0.00,,CLR,0.00,VWS V14.00,2013-08-23 02:25:00,
2013-08-22 21:30:00,74.8,72.3,30.02,NW,323,2.0,3.0,92,0.00,,CLR,0.00,VWS V14.00,2013-08-23 02:30:00,
2013-08-22 21:35:00,74.7,72.2,30.02,NW,323,0.0,3.0,92,0.00,,CLR,0.00,VWS V14.00,2013-08-23 02:35:00,
2013-08-22 21:40:00,74.7,72.2,30.02,NW,323,0.0,3.0,92,0.00,,CLR,0.00,VWS V14.00,2013-08-23 02:40:00,
2013-08-22 21:45:00,74.6,72.1,30.02,NW,323,0.0,3.0,92,0.00,,CLR,0.00,VWS V14.00,2013-08-23 02:45:00,
2013-08-22 21:50:00,74.6,72.1,30.02,NW,323,0.0,3.0,92,0.00,,CLR,0.00,VWS V14.00,2013-08-23 02:50:00,
2013-08-22 21:55:00,74.6,72.1,30.02,NW,323,0.0,0.0,92,0.00,,CLR,0.00,VWS V14.00,2013-08-23 02:55:00,
2013-08-22 22:00:00,74.6,72.1,30.02,NW,323,0.0,3.0,92,0.00,,CLR,0.00,VWS V14.00,2013-08-23 03:00:00,
2013-08-22 22:05:00,74.6,72.1,30.02,NW,323,0.0,3.0,92,0.00,,CLR,0.00,VWS V14.00,2013-08-23 03:05:00,
2013-08-22 22:10:00,74.4,71.9,30.02,NW,323,1.0,4.0,92,0.00,,CLR,0.00,VWS V14.00,2013-08-23 03:10:00,
2013-08-22 22:15:00,74.4,71.9,30.02,NW,323,0.0,4.0,92,0.00,,CLR,0.00,VWS V14.00,2013-08-23 03:15:00,
2013-08-22 22:20:00,74.6,72.1,30.02,NW,323,1.0,4.0,92,0.00,,CLR,0.00,VWS V14.00,2013-08-23 03:20:00,
2013-08-22 22:25:00,74.7,71.9,30.02,NW,323,1.0,5.0,91,0.00,,CLR,0.00,VWS V14.00,2013-08-23 03:25:00,
2013-08-22 22:30:00,74.8,71.7,30.02,NW,324,1.0,5.0,90,0.00,,CLR,0.00,VWS V14.00,2013-08-23 03:30:00,
2013-08-22 22:35:00,74.9,71.8,30.02,NW,325,2.0,5.0,90,0.00,,CLR,0.00,VWS V14.00,2013-08-23 03:35:00,
2013-08-22 22:40:00,75.0,71.5,30.02,NW,325,0.0,5.0,89,0.00,,CLR,0.00,VWS V14.00,2013-08-23 03:40:00,
2013-08-22 22:45:00,75.0,71.5,30.02,NW,326,1.0,5.0,89,0.00,,CLR,0.00,VWS V14.00,2013-08-23 03:45:00,
2013-08-22 22:50:00,75.0,71.5,30.02,NW,326,0.0,5.0,89,0.00,,CLR,0.00,VWS V14.00,2013-08-23 03:50:00,
2013-08-22 22:55:00,74.9,71.4,30.02,NW,326,0.0,1.0,89,0.00,,CLR,0.00,VWS V14.00,2013-08-23 03:55:00,
2013-08-22 22:59:00,74.8,71.3,30.02,NW,326,1.0,2.0,89,0.00,,CLR,0.00,VWS V14.00,2013-08-23 03:59:00,
2013-08-22 23:00:00,75.0,71.5,30.02,NW,326,0.0,5.0,89,0.00,,CLR,0.00,VWS V14.00,2013-08-23 04:00:00,
2013-08-22 23:01:00,74.8,71.3,30.02,NW,326,0.0,2.0,89,0.00,,CLR,0.00,VWS V14.00,2013-08-23 04:01:00,
2013-08-22 23:06:00,74.6,71.2,30.02,NW,326,0.0,2.0,89,0.00,,CLR,0.00,VWS V14.00,2013-08-23 04:06:00,
2013-08-22 23:11:00,74.5,71.1,30.03,NW,326,0.0,2.0,89,0.00,,CLR,0.00,VWS V14.00,2013-08-23 04:11:00,
2013-08-22 23:16:00,74.3,70.8,30.03,NW,326,0.0,2.0,89,0.00,,CLR,0.00,VWS V14.00,2013-08-23 04:16:00,
2013-08-22 23:21:00,74.1,70.7,30.03,NW,326,0.0,0.0,89,0.00,,CLR,0.00,VWS V14.00,2013-08-23 04:21:00,
2013-08-22 23:26:00,73.9,70.5,30.03,NW,326,0.0,0.0,89,0.00,,CLR,0.00,VWS V14.00,2013-08-23 04:26:00,
2013-08-22 23:30:00,74.1,70.7,30.03,NW,326,0.0,2.0,89,0.00,,CLR,0.00,VWS V14.00,2013-08-23 04:30:00,
2013-08-22 23:31:00,73.6,70.2,30.03,NW,326,0.0,1.0,89,0.00,,CLR,0.00,VWS V14.00,2013-08-23 04:31:00,
2013-08-22 23:36:00,73.4,70.3,30.03,NW,326,0.0,1.0,90,0.00,,CLR,0.00,VWS V14.00,2013-08-23 04:36:00,
2013-08-22 23:41:00,73.2,70.1,30.03,NW,326,0.0,1.0,90,0.00,,CLR,0.00,VWS V14.00,2013-08-23 04:41:00,
2013-08-22 23:46:00,73.2,70.1,30.03,NW,326,0.0,1.0,90,0.00,,CLR,0.00,VWS V14.00,2013-08-23 04:46:00,
2013-08-22 23:51:00,72.7,69.9,30.03,NW,326,0.0,0.0,91,0.00,,CLR,0.00,VWS V14.00,2013-08-23 04:51:00,
2013-08-22 23:56:00,72.5,69.7,30.03,NW,326,0.0,0.0,91,0.00,,CLR,0.00,VWS V14.00,2013-08-23 04:56:00,